createdAt,value
2019-01-29T00:00:54.752Z,56.31
2019-01-29T00:01:57.484Z,56.64
2019-01-29T00:02:59.878Z,56.46
2019-01-29T00:04:02.262Z,56.46
2019-01-29T00:05:05.586Z,56.21
2019-01-29T00:06:08.906Z,56.45
2019-01-29T00:07:11.839Z,56.20
2019-01-29T00:08:14.436Z,56.28
2019-01-29T00:09:16.876Z,55.87
2019-01-29T00:10:19.738Z,56.46
2019-01-29T00:11:22.136Z,56.79
2019-01-29T00:12:25.886Z,56.59
2019-01-29T00:13:28.379Z,56.42
2019-01-29T00:14:30.965Z,56.75
2019-01-29T00:15:34.500Z,56.53
2019-01-29T00:16:37.154Z,56.53
2019-01-29T00:17:40.284Z,56.45
2019-01-29T00:18:43.072Z,56.60
2019-01-29T00:19:47.139Z,56.77
2019-01-29T00:20:49.690Z,56.94
2019-01-29T00:21:52.711Z,56.58
2019-01-29T00:22:55.087Z,56.64
2019-01-29T00:23:57.875Z,56.64
2019-01-29T00:25:00.366Z,56.48
2019-01-29T00:26:02.885Z,56.85
2019-01-29T00:27:05.255Z,56.72
2019-01-29T00:28:09.034Z,56.49
2019-01-29T00:29:12.500Z,56.49
2019-01-29T00:30:15.339Z,56.59
2019-01-29T00:31:17.763Z,56.59
2019-01-29T00:32:20.232Z,56.59
2019-01-29T00:33:22.675Z,56.60
2019-01-29T00:34:25.135Z,56.42
2019-01-29T00:35:27.503Z,56.54
2019-01-29T00:36:29.928Z,56.42
2019-01-29T00:37:32.296Z,56.23
2019-01-29T00:38:35.083Z,56.30
2019-01-29T00:39:38.683Z,56.29
2019-01-29T00:40:41.153Z,56.56
2019-01-29T00:41:43.683Z,56.78
2019-01-29T00:42:47.851Z,56.50
2019-01-29T00:43:50.252Z,56.50
2019-01-29T00:44:53.227Z,56.51
2019-01-29T00:45:55.703Z,56.01
2019-01-29T00:46:59.545Z,56.21
2019-01-29T00:48:01.945Z,56.71
2019-01-29T00:49:04.799Z,56.25
2019-01-29T00:50:07.597Z,56.25
2019-01-29T00:51:10.309Z,56.37
2019-01-29T00:52:13.499Z,56.34
2019-01-29T00:53:16.076Z,56.34
2019-01-29T00:54:18.824Z,56.16
2019-01-29T00:55:22.036Z,56.45
2019-01-29T00:56:24.556Z,56.45
2019-01-29T00:57:26.996Z,56.37
2019-01-29T00:58:29.550Z,56.24
2019-01-29T00:59:32.340Z,56.17
2019-01-29T01:00:34.928Z,56.17
2019-01-29T01:01:37.382Z,56.44
2019-01-29T01:02:41.067Z,56.55
2019-01-29T01:03:43.537Z,56.83
2019-01-29T01:04:46.020Z,56.71
2019-01-29T01:05:48.415Z,56.33
2019-01-29T01:06:50.908Z,56.58
2019-01-29T01:07:53.303Z,56.84
2019-01-29T01:08:57.124Z,56.57
2019-01-29T01:10:00.802Z,56.77
2019-01-29T01:11:04.812Z,56.77
2019-01-29T01:12:07.219Z,56.82
2019-01-29T01:13:09.954Z,56.74
2019-01-29T01:14:12.467Z,56.63
2019-01-29T01:15:15.351Z,56.63
2019-01-29T01:16:18.159Z,56.66
2019-01-29T01:17:21.152Z,56.61
2019-01-29T01:18:23.824Z,56.56
2019-01-29T01:19:26.524Z,56.61
2019-01-29T01:20:28.934Z,56.61
2019-01-29T01:21:31.343Z,56.73
2019-01-29T01:22:33.891Z,56.64
2019-01-29T01:23:36.753Z,56.67
2019-01-29T01:24:39.302Z,56.58
2019-01-29T01:25:41.833Z,56.74
2019-01-29T01:26:44.658Z,56.67
2019-01-29T01:27:47.828Z,56.67
2019-01-29T01:28:50.499Z,56.73
2019-01-29T01:29:53.857Z,56.92
2019-01-29T01:30:56.497Z,56.92
2019-01-29T01:31:59.961Z,56.82
2019-01-29T01:33:02.425Z,56.82
2019-01-29T01:34:04.879Z,56.52
2019-01-29T01:35:07.348Z,56.75
2019-01-29T01:36:09.773Z,56.75
2019-01-29T01:37:14.120Z,56.59
2019-01-29T01:38:17.924Z,56.59
2019-01-29T01:39:20.859Z,56.68
2019-01-29T01:40:24.990Z,56.66
2019-01-29T01:41:27.654Z,56.24
2019-01-29T01:42:30.982Z,56.48
2019-01-29T01:43:34.048Z,56.72
2019-01-29T01:44:36.756Z,56.72
2019-01-29T01:45:39.400Z,56.62
2019-01-29T01:46:42.200Z,56.80
2019-01-29T01:47:44.618Z,56.80
2019-01-29T01:48:47.407Z,56.53
2019-01-29T01:49:49.827Z,56.50
2019-01-29T01:50:52.276Z,56.87
2019-01-29T01:51:54.718Z,56.87
2019-01-29T01:52:59.333Z,56.83
2019-01-29T01:54:01.752Z,56.83
2019-01-29T01:55:06.059Z,56.58
2019-01-29T01:56:08.469Z,56.74
2019-01-29T01:57:11.401Z,56.49
2019-01-29T01:58:13.770Z,56.63
2019-01-29T01:59:16.489Z,56.53
2019-01-29T02:00:19.998Z,56.74
2019-01-29T02:01:22.604Z,56.74
2019-01-29T02:02:25.263Z,56.75
2019-01-29T02:03:27.730Z,56.64
2019-01-29T02:04:30.638Z,56.42
2019-01-29T02:05:34.059Z,56.71
2019-01-29T02:06:36.640Z,56.46
2019-01-29T02:07:39.187Z,56.79
2019-01-29T02:08:42.780Z,56.32
2019-01-29T02:09:45.451Z,56.45
2019-01-29T02:10:49.327Z,56.45
2019-01-29T02:11:52.268Z,56.42
2019-01-29T02:12:55.159Z,56.58
2019-01-29T02:13:57.608Z,56.43
2019-01-29T02:15:00.260Z,56.43
2019-01-29T02:16:02.737Z,56.30
2019-01-29T02:17:07.497Z,56.30
2019-01-29T02:18:10.119Z,56.42
2019-01-29T02:19:12.659Z,56.58
2019-01-29T02:20:15.611Z,56.36
2019-01-29T02:21:18.430Z,56.44
2019-01-29T02:22:21.115Z,56.23
2019-01-29T02:23:23.831Z,56.31
2019-01-29T02:24:26.402Z,56.55
2019-01-29T02:25:29.624Z,56.23
2019-01-29T02:26:33.154Z,56.23
2019-01-29T02:27:35.565Z,56.49
2019-01-29T02:28:37.992Z,56.49
2019-01-29T02:29:40.937Z,56.33
2019-01-29T02:30:43.408Z,56.49
2019-01-29T02:31:45.824Z,56.31
2019-01-29T02:32:48.241Z,56.50
2019-01-29T02:33:50.988Z,56.45
2019-01-29T02:34:53.866Z,55.95
2019-01-29T02:35:56.622Z,56.35
2019-01-29T02:36:59.240Z,56.11
2019-01-29T02:38:02.732Z,56.14
2019-01-29T02:39:07.731Z,56.29
2019-01-29T02:40:17.466Z,56.31
2019-01-29T02:41:20.041Z,56.16
2019-01-29T02:42:22.494Z,56.35
2019-01-29T02:43:24.868Z,56.35
2019-01-29T02:44:28.866Z,56.20
2019-01-29T02:45:31.298Z,56.48
2019-01-29T02:46:33.790Z,56.22
2019-01-29T02:47:37.314Z,56.34
2019-01-29T02:48:39.786Z,56.55
2019-01-29T02:49:42.519Z,56.53
2019-01-29T02:50:44.862Z,56.59
2019-01-29T02:51:47.404Z,56.59
2019-01-29T02:52:50.303Z,56.39
2019-01-29T02:53:52.682Z,56.63
2019-01-29T02:54:56.749Z,56.33
2019-01-29T02:56:00.252Z,56.64
2019-01-29T02:57:02.847Z,56.55
2019-01-29T02:58:07.130Z,56.55
2019-01-29T02:59:09.447Z,56.48
2019-01-29T03:00:17.037Z,56.21
2019-01-29T03:01:22.127Z,55.92
2019-01-29T03:02:24.636Z,56.12
2019-01-29T03:03:26.981Z,56.26
2019-01-29T03:04:29.550Z,56.19
2019-01-29T03:05:32.025Z,55.88
2019-01-29T03:06:35.906Z,56.34
2019-01-29T03:07:38.320Z,56.20
2019-01-29T03:08:40.698Z,56.26
2019-01-29T03:09:43.027Z,56.30
2019-01-29T03:10:45.420Z,56.30
2019-01-29T03:11:49.716Z,56.29
2019-01-29T03:12:53.704Z,56.41
2019-01-29T03:13:56.471Z,55.76
2019-01-29T03:15:00.270Z,56.10
2019-01-29T03:16:02.621Z,56.14
2019-01-29T03:17:05.053Z,56.14
2019-01-29T03:18:07.420Z,56.28
2019-01-29T03:19:10.075Z,56.06
2019-01-29T03:20:13.015Z,56.02
2019-01-29T03:21:15.489Z,56.18
2019-01-29T03:22:18.208Z,56.41
2019-01-29T03:23:27.212Z,56.19
2019-01-29T03:24:25.156Z,56.40
2019-01-29T03:25:27.567Z,56.40
2019-01-29T03:26:29.988Z,56.28
2019-01-29T03:27:32.383Z,56.05
2019-01-29T03:28:35.915Z,56.26
2019-01-29T03:29:38.324Z,56.29
2019-01-29T03:30:42.391Z,56.27
2019-01-29T03:31:44.888Z,56.04
2019-01-29T03:32:47.412Z,56.43
2019-01-29T03:33:50.821Z,56.33
2019-01-29T03:34:53.247Z,56.31
2019-01-29T03:35:55.671Z,56.42
2019-01-29T03:36:58.026Z,56.36
2019-01-29T03:38:01.884Z,56.18
2019-01-29T03:39:07.350Z,55.96
2019-01-29T03:40:12.415Z,56.02
2019-01-29T03:41:15.040Z,56.02
2019-01-29T03:42:17.728Z,55.94
2019-01-29T03:43:20.596Z,56.35
2019-01-29T03:44:23.070Z,56.35
2019-01-29T03:45:25.742Z,55.95
2019-01-29T03:46:28.114Z,55.90
2019-01-29T03:47:30.702Z,55.94
2019-01-29T03:48:33.066Z,56.18
2019-01-29T03:49:35.687Z,56.18
2019-01-29T03:50:38.174Z,55.88
2019-01-29T03:51:40.751Z,55.92
2019-01-29T03:52:43.411Z,56.03
2019-01-29T03:53:46.019Z,56.12
2019-01-29T03:54:48.690Z,56.29
2019-01-29T03:55:51.129Z,56.54
2019-01-29T03:56:54.657Z,56.33
2019-01-29T03:57:57.152Z,56.01
2019-01-29T03:58:59.557Z,55.93
2019-01-29T04:00:02.235Z,56.08
2019-01-29T04:01:05.828Z,56.09
2019-01-29T04:02:08.251Z,56.25
2019-01-29T04:03:10.697Z,55.97
2019-01-29T04:04:13.579Z,56.25
2019-01-29T04:05:16.007Z,55.66
2019-01-29T04:06:18.600Z,55.66
2019-01-29T04:07:22.618Z,56.37
2019-01-29T04:08:26.469Z,56.02
2019-01-29T04:09:28.815Z,56.02
2019-01-29T04:10:31.240Z,55.66
2019-01-29T04:11:33.765Z,56.29
2019-01-29T04:12:36.934Z,56.39
2019-01-29T04:13:40.757Z,55.99
2019-01-29T04:14:43.305Z,56.03
2019-01-29T04:15:46.242Z,56.19
2019-01-29T04:16:48.738Z,55.96
2019-01-29T04:17:54.729Z,56.23
2019-01-29T04:18:57.224Z,56.23
2019-01-29T04:19:59.706Z,56.10
2019-01-29T04:21:02.132Z,56.20
2019-01-29T04:22:05.676Z,56.00
2019-01-29T04:23:09.796Z,56.19
2019-01-29T04:24:12.288Z,55.68
2019-01-29T04:25:14.772Z,55.96
2019-01-29T04:26:17.240Z,56.14
2019-01-29T04:27:19.956Z,56.13
2019-01-29T04:28:22.443Z,56.12
2019-01-29T04:29:24.958Z,56.16
2019-01-29T04:30:27.507Z,56.16
2019-01-29T04:31:29.815Z,56.17
2019-01-29T04:32:36.152Z,56.12
2019-01-29T04:33:38.545Z,56.12
2019-01-29T04:34:41.374Z,56.07
2019-01-29T04:35:43.763Z,56.07
2019-01-29T04:36:46.623Z,56.13
2019-01-29T04:37:49.151Z,56.13
2019-01-29T04:38:51.647Z,56.30
2019-01-29T04:39:54.039Z,56.30
2019-01-29T04:40:56.682Z,56.47
2019-01-29T04:41:59.288Z,56.47
2019-01-29T04:43:01.878Z,56.63
2019-01-29T04:44:04.672Z,56.42
2019-01-29T04:45:08.896Z,56.83
2019-01-29T04:46:11.288Z,56.83
2019-01-29T04:47:13.783Z,56.28
2019-01-29T04:48:17.235Z,56.56
2019-01-29T04:49:21.506Z,56.56
2019-01-29T04:50:24.083Z,56.50
2019-01-29T04:51:26.525Z,56.31
2019-01-29T04:52:28.902Z,56.31
2019-01-29T04:53:31.665Z,56.47
2019-01-29T04:54:34.045Z,56.49
2019-01-29T04:55:36.655Z,56.24
2019-01-29T04:56:39.037Z,56.46
2019-01-29T04:57:41.705Z,56.58
2019-01-29T04:58:44.518Z,56.49
2019-01-29T04:59:50.637Z,56.40
2019-01-29T05:00:52.982Z,56.40
2019-01-29T05:01:55.364Z,56.36
2019-01-29T05:02:57.924Z,56.29
2019-01-29T05:04:00.811Z,56.40
2019-01-29T05:05:04.547Z,56.42
2019-01-29T05:06:07.044Z,56.63
2019-01-29T05:07:10.022Z,56.32
2019-01-29T05:08:12.567Z,56.39
2019-01-29T05:09:15.031Z,56.66
2019-01-29T05:10:19.005Z,56.18
2019-01-29T05:11:21.484Z,56.77
2019-01-29T05:12:23.922Z,56.47
2019-01-29T05:13:26.348Z,56.47
2019-01-29T05:14:28.887Z,56.70
2019-01-29T05:15:31.584Z,56.61
2019-01-29T05:16:34.794Z,56.61
2019-01-29T05:17:38.292Z,56.77
2019-01-29T05:18:41.414Z,56.61
2019-01-29T05:19:43.956Z,56.61
2019-01-29T05:20:46.904Z,56.93
2019-01-29T05:21:49.418Z,56.93
2019-01-29T05:22:51.817Z,56.86
2019-01-29T05:23:54.198Z,56.86
2019-01-29T05:24:56.859Z,56.93
2019-01-29T05:25:59.233Z,56.93
2019-01-29T05:27:02.776Z,56.88
2019-01-29T05:28:05.293Z,56.82
2019-01-29T05:29:09.447Z,56.83
2019-01-29T05:30:14.758Z,56.83
2019-01-29T05:31:17.255Z,56.62
2019-01-29T05:32:19.719Z,57.19
2019-01-29T05:33:23.365Z,57.18
2019-01-29T05:34:25.773Z,57.14
2019-01-29T05:35:28.342Z,57.14
2019-01-29T05:36:30.794Z,57.11
2019-01-29T05:37:33.195Z,57.11
2019-01-29T05:38:35.803Z,56.90
2019-01-29T05:39:38.539Z,56.64
2019-01-29T05:40:41.019Z,56.64
2019-01-29T05:41:43.440Z,56.80
2019-01-29T05:42:46.233Z,56.66
2019-01-29T05:43:48.830Z,56.51
2019-01-29T05:44:51.679Z,56.36
2019-01-29T05:45:55.269Z,56.25
2019-01-29T05:46:58.413Z,56.25
2019-01-29T05:48:01.119Z,56.13
2019-01-29T05:49:03.831Z,55.62
2019-01-29T05:50:07.033Z,56.03
2019-01-29T05:51:09.453Z,55.72
2019-01-29T05:52:12.486Z,54.98
2019-01-29T05:53:15.447Z,55.85
2019-01-29T05:54:17.888Z,55.63
2019-01-29T05:55:20.401Z,55.63
2019-01-29T05:56:24.485Z,55.93
2019-01-29T05:57:27.464Z,56.08
2019-01-29T05:58:29.871Z,55.77
2019-01-29T05:59:32.404Z,55.77
2019-01-29T06:00:37.643Z,55.72
2019-01-29T06:01:40.219Z,55.64
2019-01-29T06:02:42.544Z,55.64
2019-01-29T06:03:46.143Z,55.71
2019-01-29T06:04:48.474Z,55.47
2019-01-29T06:05:50.867Z,55.62
2019-01-29T06:06:53.450Z,55.77
2019-01-29T06:07:56.494Z,55.45
2019-01-29T06:08:59.083Z,55.59
2019-01-29T06:10:03.192Z,55.60
2019-01-29T06:11:05.503Z,55.24
2019-01-29T06:12:08.234Z,55.66
2019-01-29T06:13:12.019Z,56.11
2019-01-29T06:14:14.967Z,56.11
2019-01-29T06:15:18.172Z,56.21
2019-01-29T06:16:20.801Z,56.29
2019-01-29T06:17:27.523Z,56.56
2019-01-29T06:18:28.138Z,56.71
2019-01-29T06:19:30.608Z,56.71
2019-01-29T06:20:34.633Z,56.40
2019-01-29T06:21:37.372Z,56.35
2019-01-29T06:22:39.870Z,56.62
2019-01-29T06:23:42.532Z,56.75
2019-01-29T06:24:45.968Z,56.83
2019-01-29T06:25:48.433Z,56.79
2019-01-29T06:26:53.355Z,56.79
2019-01-29T06:27:56.108Z,56.64
2019-01-29T06:29:00.690Z,56.39
2019-01-29T06:30:04.025Z,56.66
2019-01-29T06:31:06.469Z,56.66
2019-01-29T06:32:10.214Z,56.55
2019-01-29T06:33:13.724Z,56.34
2019-01-29T06:34:16.594Z,56.12
2019-01-29T06:35:19.208Z,56.13
2019-01-29T06:36:23.027Z,56.49
2019-01-29T06:37:25.485Z,56.36
2019-01-29T06:38:30.160Z,56.46
2019-01-29T06:39:32.649Z,56.46
2019-01-29T06:40:35.271Z,55.94
2019-01-29T06:41:38.322Z,55.89
2019-01-29T06:42:42.365Z,55.37
2019-01-29T06:43:44.976Z,55.52
2019-01-29T06:44:48.199Z,55.52
2019-01-29T06:45:51.093Z,55.66
2019-01-29T06:46:53.531Z,55.48
2019-01-29T06:47:55.952Z,55.48
2019-01-29T06:48:58.443Z,55.54
2019-01-29T06:50:00.816Z,55.63
2019-01-29T06:51:03.233Z,55.60
2019-01-29T06:52:05.795Z,55.60
2019-01-29T06:53:08.579Z,55.44
2019-01-29T06:54:11.241Z,55.71
2019-01-29T06:55:15.597Z,55.71
2019-01-29T06:56:18.149Z,55.63
2019-01-29T06:57:20.635Z,55.63
2019-01-29T06:58:23.119Z,55.23
2019-01-29T06:59:25.549Z,55.55
2019-01-29T07:00:29.434Z,55.55
2019-01-29T07:01:31.858Z,55.56
2019-01-29T07:02:34.511Z,55.42
2019-01-29T07:03:36.871Z,55.61
2019-01-29T07:04:39.274Z,55.61
2019-01-29T07:05:41.900Z,55.65
2019-01-29T07:06:44.370Z,55.65
2019-01-29T07:07:46.712Z,55.81
2019-01-29T07:08:49.390Z,55.81
2019-01-29T07:09:51.714Z,55.68
2019-01-29T07:10:54.279Z,55.43
2019-01-29T07:12:01.012Z,55.31
2019-01-29T07:13:04.030Z,55.61
2019-01-29T07:14:07.527Z,55.61
2019-01-29T07:15:18.386Z,55.24
2019-01-29T07:16:46.554Z,55.43
2019-01-29T07:17:49.617Z,55.47
2019-01-29T07:18:59.010Z,55.47
2019-01-29T07:20:04.406Z,55.15
2019-01-29T07:21:08.990Z,55.21
2019-01-29T07:22:11.808Z,55.51
2019-01-29T07:23:14.321Z,55.51
2019-01-29T07:24:16.924Z,55.51
2019-01-29T07:25:19.434Z,55.14
2019-01-29T07:26:21.814Z,55.25
2019-01-29T07:27:24.212Z,55.25
2019-01-29T07:28:26.621Z,55.54
2019-01-29T07:29:29.568Z,55.66
2019-01-29T07:30:31.993Z,55.38
2019-01-29T07:31:34.480Z,55.20
2019-01-29T07:32:36.894Z,55.48
2019-01-29T07:33:39.477Z,55.22
2019-01-29T07:34:42.069Z,55.37
2019-01-29T07:35:45.293Z,55.25
2019-01-29T07:36:48.613Z,55.14
2019-01-29T07:37:52.859Z,54.99
2019-01-29T07:38:55.339Z,55.30
2019-01-29T07:39:58.259Z,55.13
2019-01-29T07:41:00.704Z,55.13
2019-01-29T07:42:03.685Z,55.43
2019-01-29T07:43:06.711Z,55.22
2019-01-29T07:44:09.418Z,55.26
2019-01-29T07:45:11.871Z,55.34
2019-01-29T07:46:14.679Z,55.26
2019-01-29T07:47:17.123Z,55.22
2019-01-29T07:48:19.580Z,55.18
2019-01-29T07:49:22.037Z,55.18
2019-01-29T07:50:24.775Z,55.17
2019-01-29T07:51:27.373Z,54.95
2019-01-29T07:52:29.965Z,55.06
2019-01-29T07:53:32.405Z,55.06
2019-01-29T07:54:35.447Z,54.89
2019-01-29T07:55:37.923Z,55.30
2019-01-29T07:56:40.342Z,55.04
2019-01-29T07:57:44.268Z,54.83
2019-01-29T07:58:49.080Z,54.83
2019-01-29T07:59:51.807Z,54.74
2019-01-29T08:00:54.477Z,54.83
2019-01-29T08:01:57.352Z,54.89
2019-01-29T08:03:00.079Z,55.81
2019-01-29T08:04:02.682Z,54.89
2019-01-29T08:05:06.999Z,54.89
2019-01-29T08:06:09.876Z,54.87
2019-01-29T08:07:13.535Z,54.97
2019-01-29T08:08:16.685Z,54.95
2019-01-29T08:09:21.435Z,55.06
2019-01-29T08:10:24.745Z,55.21
2019-01-29T08:11:27.265Z,55.00
2019-01-29T08:12:30.940Z,54.89
2019-01-29T08:13:33.638Z,54.60
2019-01-29T08:14:37.163Z,54.67
2019-01-29T08:15:39.826Z,54.55
2019-01-29T08:16:42.304Z,54.68
2019-01-29T08:17:45.437Z,54.49
2019-01-29T08:18:49.562Z,54.95
2019-01-29T08:19:51.972Z,54.52
2019-01-29T08:20:54.460Z,54.51
2019-01-29T08:21:58.679Z,54.67
2019-01-29T08:23:01.448Z,54.65
2019-01-29T08:24:05.224Z,54.61
2019-01-29T08:25:08.005Z,54.61
2019-01-29T08:26:10.407Z,54.48
2019-01-29T08:27:14.844Z,54.57
2019-01-29T08:28:18.664Z,54.35
2019-01-29T08:29:21.270Z,54.78
2019-01-29T08:30:23.600Z,54.54
2019-01-29T08:31:26.156Z,54.54
2019-01-29T08:32:28.520Z,54.49
2019-01-29T08:33:30.962Z,54.49
2019-01-29T08:34:33.364Z,54.58
2019-01-29T08:35:36.083Z,54.59
2019-01-29T08:36:38.694Z,54.51
2019-01-29T08:37:41.266Z,54.67
2019-01-29T08:38:43.711Z,54.61
2019-01-29T08:39:48.250Z,54.63
2019-01-29T08:40:50.917Z,54.58
2019-01-29T08:41:55.989Z,54.30
2019-01-29T08:42:58.829Z,54.50
2019-01-29T08:44:01.476Z,54.17
2019-01-29T08:45:04.653Z,54.17
2019-01-29T08:46:07.136Z,55.04
2019-01-29T08:47:10.037Z,54.38
2019-01-29T08:48:12.825Z,54.39
2019-01-29T08:49:15.475Z,54.67
2019-01-29T08:50:20.181Z,54.72
2019-01-29T08:51:24.223Z,54.44
2019-01-29T08:52:26.589Z,54.44
2019-01-29T08:53:29.045Z,54.22
2019-01-29T08:54:31.429Z,54.00
2019-01-29T08:55:34.312Z,54.24
2019-01-29T08:56:36.742Z,54.49
2019-01-29T08:57:39.255Z,54.57
2019-01-29T08:58:41.957Z,54.57
2019-01-29T08:59:44.535Z,54.22
2019-01-29T09:00:46.968Z,54.27
2019-01-29T09:01:51.431Z,54.33
2019-01-29T09:02:53.774Z,54.55
2019-01-29T09:03:59.117Z,54.55
2019-01-29T09:05:01.757Z,54.59
2019-01-29T09:06:04.344Z,54.31
2019-01-29T09:07:06.874Z,53.97
2019-01-29T09:08:09.566Z,54.32
2019-01-29T09:09:13.044Z,53.99
2019-01-29T09:10:15.917Z,54.40
2019-01-29T09:11:18.612Z,54.36
2019-01-29T09:12:21.154Z,54.32
2019-01-29T09:13:24.600Z,54.38
2019-01-29T09:14:27.088Z,54.24
2019-01-29T09:15:29.703Z,54.46
2019-01-29T09:16:32.177Z,53.98
2019-01-29T09:17:34.901Z,53.98
2019-01-29T09:18:38.663Z,53.68
2019-01-29T09:19:41.094Z,53.69
2019-01-29T09:20:43.692Z,53.85
2019-01-29T09:21:47.595Z,54.36
2019-01-29T09:22:49.965Z,54.36
2019-01-29T09:23:52.358Z,54.33
2019-01-29T09:24:54.837Z,54.33
2019-01-29T09:25:57.222Z,54.85
2019-01-29T09:27:01.178Z,54.85
2019-01-29T09:28:04.763Z,54.65
2019-01-29T09:29:07.797Z,54.52
2019-01-29T09:30:12.228Z,54.18
2019-01-29T09:31:15.763Z,54.45
2019-01-29T09:32:19.165Z,54.04
2019-01-29T09:33:21.567Z,54.25
2019-01-29T09:34:23.999Z,54.51
2019-01-29T09:35:26.565Z,54.18
2019-01-29T09:36:29.036Z,54.92
2019-01-29T09:37:31.515Z,54.92
2019-01-29T09:38:33.943Z,54.03
2019-01-29T09:39:36.823Z,54.37
2019-01-29T09:40:39.203Z,54.37
2019-01-29T09:41:42.782Z,54.15
2019-01-29T09:42:45.411Z,54.19
2019-01-29T09:43:48.012Z,54.42
2019-01-29T09:44:51.935Z,54.44
2019-01-29T09:45:54.277Z,54.38
2019-01-29T09:46:56.805Z,54.08
2019-01-29T09:47:59.229Z,54.23
2019-01-29T09:49:01.614Z,54.17
2019-01-29T09:50:04.625Z,53.90
2019-01-29T09:51:07.031Z,54.42
2019-01-29T09:52:09.409Z,54.10
2019-01-29T09:53:11.761Z,54.44
2019-01-29T09:54:14.271Z,54.29
2019-01-29T09:55:17.737Z,54.29
2019-01-29T09:56:20.153Z,54.71
2019-01-29T09:57:22.541Z,54.64
2019-01-29T09:58:25.395Z,54.20
2019-01-29T09:59:27.781Z,54.67
2019-01-29T10:00:33.079Z,53.98
2019-01-29T10:01:36.817Z,54.07
2019-01-29T10:02:39.194Z,54.74
2019-01-29T10:03:42.282Z,54.74
2019-01-29T10:04:44.708Z,53.80
2019-01-29T10:05:48.205Z,53.85
2019-01-29T10:06:50.744Z,54.05
2019-01-29T10:07:53.329Z,53.95
2019-01-29T10:08:55.904Z,53.84
2019-01-29T10:09:58.623Z,54.01
2019-01-29T10:11:01.075Z,54.00
2019-01-29T10:12:03.524Z,54.12
2019-01-29T10:13:06.117Z,54.12
2019-01-29T10:14:08.524Z,53.91
2019-01-29T10:15:14.242Z,54.08
2019-01-29T10:16:17.159Z,54.08
2019-01-29T10:17:20.247Z,54.28
2019-01-29T10:18:22.624Z,54.22
2019-01-29T10:19:25.183Z,54.15
2019-01-29T10:20:27.718Z,53.97
2019-01-29T10:21:30.137Z,54.52
2019-01-29T10:22:32.614Z,54.52
2019-01-29T10:23:35.051Z,54.26
2019-01-29T10:24:37.544Z,54.66
2019-01-29T10:25:40.084Z,53.83
2019-01-29T10:26:42.497Z,54.32
2019-01-29T10:27:45.269Z,54.21
2019-01-29T10:28:47.845Z,53.95
2019-01-29T10:29:50.227Z,53.95
2019-01-29T10:30:53.052Z,54.03
2019-01-29T10:31:55.471Z,54.03
2019-01-29T10:32:57.883Z,54.24
2019-01-29T10:34:01.653Z,53.81
2019-01-29T10:35:05.338Z,53.81
2019-01-29T10:36:07.943Z,54.16
2019-01-29T10:37:10.621Z,54.18
2019-01-29T10:38:13.825Z,54.16
2019-01-29T10:39:16.340Z,54.09
2019-01-29T10:40:20.597Z,54.18
2019-01-29T10:41:23.189Z,54.24
2019-01-29T10:42:25.673Z,54.24
2019-01-29T10:43:28.231Z,54.10
2019-01-29T10:44:31.953Z,53.98
2019-01-29T10:45:34.525Z,54.00
2019-01-29T10:46:37.141Z,54.16
2019-01-29T10:47:39.777Z,53.89
2019-01-29T10:48:42.301Z,54.18
2019-01-29T10:49:44.933Z,53.81
2019-01-29T10:50:48.326Z,53.46
2019-01-29T10:51:51.250Z,53.75
2019-01-29T10:52:54.058Z,54.14
2019-01-29T10:53:56.531Z,53.80
2019-01-29T10:54:59.257Z,53.80
2019-01-29T10:56:01.687Z,53.80
2019-01-29T10:57:04.191Z,53.77
2019-01-29T10:58:06.714Z,54.42
2019-01-29T10:59:09.101Z,53.87
2019-01-29T11:00:14.747Z,53.98
2019-01-29T11:01:17.318Z,53.98
2019-01-29T11:02:19.704Z,53.93
2019-01-29T11:03:23.252Z,54.19
2019-01-29T11:04:25.598Z,53.84
2019-01-29T11:05:29.544Z,54.09
2019-01-29T11:06:33.114Z,54.05
2019-01-29T11:07:36.122Z,53.97
2019-01-29T11:08:38.642Z,54.19
2019-01-29T11:09:41.390Z,54.25
2019-01-29T11:10:44.396Z,54.25
2019-01-29T11:11:48.300Z,53.85
2019-01-29T11:12:50.804Z,54.42
2019-01-29T11:13:53.236Z,54.06
2019-01-29T11:14:57.913Z,53.86
2019-01-29T11:16:00.514Z,53.93
2019-01-29T11:17:03.268Z,54.34
2019-01-29T11:18:08.232Z,53.91
2019-01-29T11:19:10.636Z,53.91
2019-01-29T11:20:14.056Z,53.97
2019-01-29T11:21:16.599Z,54.13
2019-01-29T11:22:19.695Z,53.94
2019-01-29T11:23:23.137Z,53.76
2019-01-29T11:24:27.576Z,53.84
2019-01-29T11:25:31.805Z,53.84
2019-01-29T11:26:34.335Z,53.68
2019-01-29T11:27:36.831Z,53.60
2019-01-29T11:28:39.206Z,53.88
2019-01-29T11:29:41.809Z,53.88
2019-01-29T11:30:44.537Z,53.84
2019-01-29T11:31:46.994Z,53.82
2019-01-29T11:32:49.345Z,53.87
2019-01-29T11:33:53.569Z,53.87
2019-01-29T11:34:56.206Z,53.61
2019-01-29T11:35:59.538Z,53.64
2019-01-29T11:37:02.151Z,53.72
2019-01-29T11:38:04.753Z,53.72
2019-01-29T11:39:13.138Z,54.04
2019-01-29T11:40:18.959Z,54.04
2019-01-29T11:41:21.333Z,53.72
2019-01-29T11:42:24.229Z,53.57
2019-01-29T11:43:26.677Z,53.57
2019-01-29T11:44:29.207Z,53.73
2019-01-29T11:45:34.077Z,53.55
2019-01-29T11:46:36.469Z,53.71
2019-01-29T11:47:38.984Z,53.74
2019-01-29T11:48:41.409Z,53.75
2019-01-29T11:49:44.058Z,53.97
2019-01-29T11:50:46.874Z,53.80
2019-01-29T11:51:49.482Z,53.62
2019-01-29T11:52:51.970Z,53.67
2019-01-29T11:53:55.030Z,53.57
2019-01-29T11:54:57.781Z,53.57
2019-01-29T11:56:04.727Z,53.50
2019-01-29T11:57:05.003Z,53.37
2019-01-29T11:58:09.914Z,53.54
2019-01-29T11:59:12.410Z,53.65
2019-01-29T12:00:20.907Z,53.60
2019-01-29T12:01:25.507Z,53.60
2019-01-29T12:02:28.730Z,53.73
2019-01-29T12:03:31.192Z,54.20
2019-01-29T12:04:35.972Z,53.54
2019-01-29T12:05:38.454Z,53.50
2019-01-29T12:06:41.136Z,53.54
2019-01-29T12:07:43.450Z,53.54
2019-01-29T12:08:45.997Z,53.44
2019-01-29T12:09:49.244Z,53.46
2019-01-29T12:10:51.686Z,53.60
2019-01-29T12:11:54.130Z,53.31
2019-01-29T12:12:56.520Z,53.54
2019-01-29T12:13:58.846Z,53.54
2019-01-29T12:15:03.837Z,53.45
2019-01-29T12:16:06.456Z,53.45
2019-01-29T12:17:09.002Z,53.47
2019-01-29T12:18:11.426Z,53.44
2019-01-29T12:19:14.166Z,53.61
2019-01-29T12:20:16.585Z,53.74
2019-01-29T12:21:19.088Z,53.74
2019-01-29T12:22:21.938Z,53.52
2019-01-29T12:23:24.575Z,53.66
2019-01-29T12:24:28.434Z,53.31
2019-01-29T12:25:31.082Z,53.20
2019-01-29T12:26:33.682Z,53.40
2019-01-29T12:27:36.096Z,53.32
2019-01-29T12:28:38.821Z,53.24
2019-01-29T12:29:41.291Z,53.60
2019-01-29T12:30:43.715Z,53.42
2019-01-29T12:31:46.167Z,53.76
2019-01-29T12:32:48.767Z,53.51
2019-01-29T12:33:52.307Z,53.30
2019-01-29T12:34:54.729Z,53.30
2019-01-29T12:35:58.814Z,53.35
2019-01-29T12:37:01.160Z,53.46
2019-01-29T12:38:04.175Z,53.32
2019-01-29T12:39:07.729Z,53.33
2019-01-29T12:40:10.824Z,53.31
2019-01-29T12:41:13.285Z,53.31
2019-01-29T12:42:15.978Z,53.58
2019-01-29T12:43:18.587Z,53.37
2019-01-29T12:44:21.059Z,53.43
2019-01-29T12:45:23.483Z,53.54
2019-01-29T12:46:26.089Z,53.28
2019-01-29T12:47:28.595Z,53.62
2019-01-29T12:48:31.402Z,53.62
2019-01-29T12:49:33.837Z,53.34
2019-01-29T12:50:37.574Z,53.77
2019-01-29T12:52:00.034Z,53.45
2019-01-29T12:53:05.303Z,53.48
2019-01-29T12:54:07.693Z,53.24
2019-01-29T12:55:10.530Z,53.55
2019-01-29T12:56:21.271Z,53.38
2019-01-29T12:57:17.724Z,53.32
2019-01-29T12:58:20.444Z,53.88
2019-01-29T12:59:22.843Z,53.40
2019-01-29T13:00:27.584Z,53.37
2019-01-29T13:01:30.293Z,53.43
2019-01-29T13:02:32.970Z,53.70
2019-01-29T13:03:35.740Z,53.58
2019-01-29T13:04:38.236Z,53.81
2019-01-29T13:05:40.952Z,53.64
2019-01-29T13:06:43.840Z,53.31
2019-01-29T13:07:46.242Z,53.59
2019-01-29T13:08:48.650Z,53.38
2019-01-29T13:09:51.306Z,53.38
2019-01-29T13:10:53.704Z,53.38
2019-01-29T13:11:56.203Z,53.35
2019-01-29T13:12:58.544Z,53.07
2019-01-29T13:14:01.013Z,53.51
2019-01-29T13:15:04.342Z,53.51
2019-01-29T13:16:06.970Z,53.54
2019-01-29T13:17:11.529Z,53.41
2019-01-29T13:18:14.024Z,53.23
2019-01-29T13:19:16.666Z,53.34
2019-01-29T13:20:19.283Z,53.41
2019-01-29T13:21:21.733Z,53.26
2019-01-29T13:22:24.412Z,53.42
2019-01-29T13:23:26.821Z,53.53
2019-01-29T13:24:31.277Z,53.18
2019-01-29T13:25:33.721Z,53.21
2019-01-29T13:26:37.906Z,53.19
2019-01-29T13:27:40.712Z,52.97
2019-01-29T13:28:43.170Z,53.50
2019-01-29T13:29:45.613Z,53.24
2019-01-29T13:30:48.161Z,53.71
2019-01-29T13:31:50.587Z,53.48